Diretta Meteo Samedan, Svizzeradomenica 18 agosto ore 19:20

Mappa
Sereno 16 °C Sereno 24 Ore: T.min 6 T.max 21
Ponente Sud/Sud-Ovest Km/h 24 Punto di rugiada: 12 °C Umidità: 77% Visibilità: 10 Km
Il sole sorge alle: 06:21 Il sole tramonta alle: 20:27
18 Agosto 2019 19:20 tempo osservato: Sereno Sereno 16 77 1022 vento: Nord S/SO 24
18 Agosto 2019 18:50 tempo osservato: Sereno Sereno 18 67 1021 vento: Nord SO 29.6
18 Agosto 2019 17:50 tempo osservato: Sereno Sereno 19 63 1021 vento: Nord SO 29.6
18 Agosto 2019 17:20 tempo osservato: Sereno Sereno 19 63 1021 vento: Nord O/SO 29.6
18 Agosto 2019 16:50 tempo osservato: Sereno Sereno 20 59 1021 vento: Nord O/SO 27.8
18 Agosto 2019 16:20 tempo osservato: Sereno Sereno 20 56 1021 vento: Nord O/SO 25.9
18 Agosto 2019 15:50 tempo osservato: Sereno Sereno 20 56 1021 vento: Nord SO 27.8
18 Agosto 2019 15:20 tempo osservato: Sereno Sereno 21 52 1021 vento: Nord S/SO 20.3
18 Agosto 2019 14:20 tempo osservato: Sereno Sereno 20 56 1021 vento: Nord SO 27.8
18 Agosto 2019 13:50 tempo osservato: Sereno Sereno 20 56 1022 vento: Nord SO 27.8
18 Agosto 2019 13:20 tempo osservato: Sereno Sereno 19 55 1022 vento: Nord SO 29.6
18 Agosto 2019 12:50 tempo osservato: Sereno Sereno 19 59 1022 vento: Nord SO 29.6
18 Agosto 2019 12:20 tempo osservato: Sereno Sereno 19 55 1022 vento: Nord S/SO 25.9
18 Agosto 2019 11:50 tempo osservato: Sereno Sereno 18 55 1022 vento: Nord S 24
18 Agosto 2019 11:20 tempo osservato: Sereno Sereno 18 55 1022 vento: Nord S 18.5
18 Agosto 2019 10:50 tempo osservato: Sereno Sereno 17 63 1022 vento: Nord S 22.2
18 Agosto 2019 10:20 tempo osservato: Sereno Sereno 16 100 1022 vento: Nord N 1.8
18 Agosto 2019 09:50 tempo osservato: Sereno Sereno 12 100 1022 vento: Nord N 3.7
18 Agosto 2019 09:20 tempo osservato: Sereno Sereno 11 100 1022 vento: Nord N 3.7
18 Agosto 2019 08:50 tempo osservato: Poco Nuvoloso Poco Nuvoloso 9 100 1022 vento: Nord N 5.5
18 Agosto 2019 08:20 tempo osservato: Nebbia nelle Vicinanze Nebbia nelle Vicinanze 8 100 1023 vento: Nord N 3.7
18 Agosto 2019 07:50 tempo osservato: Banco di Nebbia Banco di Nebbia 7 100 1023 vento: Nord N 3.7
18 Agosto 2019 07:20 tempo osservato: Foschia Foschia 6 100 1022 vento: Nord N 3.7
18 Agosto 2019 06:50 tempo osservato: Foschia Foschia 7 100 1022 vento: Nord N 3.7
18 Agosto 2019 06:20 tempo osservato: Nebbia Nebbia 7 100 1022 vento: Nord N 3.7
18 Agosto 2019 05:50 tempo osservato: Nebbia Nebbia 7 100 1022 vento: Nord N 0
18 Agosto 2019 05:20 tempo osservato: Nebbia Nebbia 7 100 1022 vento: Nord N 1.8
18 Agosto 2019 04:50 tempo osservato: Nebbia Nebbia 7 100 1023 vento: Nord N 1.8
18 Agosto 2019 04:20 tempo osservato: Foschia Foschia 7 100 1023 vento: Nord N 0
18 Agosto 2019 03:50 tempo osservato: Sereno Sereno 8 100 1023 vento: Nord N 3.7
18 Agosto 2019 03:20 tempo osservato: Pioviggine Pioviggine 7 100 1023 vento: Nord N 3.7
18 Agosto 2019 02:50 tempo osservato: Foschia Foschia 7 100 1023 vento: Nord N 1.8
18 Agosto 2019 02:20 tempo osservato: Sereno Sereno 8 100 1023 vento: Nord N 1.8
18 Agosto 2019 01:50 tempo osservato: Poco Nuvoloso Poco Nuvoloso 9 100 1023 vento: Nord N 1.8
18 Agosto 2019 01:20 tempo osservato: Sereno Sereno 10 100 1023 vento: Nord N 1.8
18 Agosto 2019 00:50 tempo osservato: Sereno Sereno 11 93 1023 vento: Nord N 1.8
18 Agosto 2019 00:20 tempo osservato: Sereno Sereno 11 93 1023 vento: Nord N 5.5
17 Agosto 2019 23:50 tempo osservato: Sereno Sereno 13 87 1023 vento: Nord S/SE 9.3
17 Agosto 2019 23:20 tempo osservato: Sereno Sereno 13 81 1023 vento: Nord S/SE 13
17 Agosto 2019 22:50 tempo osservato: Sereno Sereno 12 87 1023 vento: Nord S/SE 13
17 Agosto 2019 22:20 tempo osservato: Sereno Sereno 12 87 1023 vento: Nord S 11.1
17 Agosto 2019 21:50 tempo osservato: Sereno Sereno 13 81 1023 vento: Nord S 11.1
17 Agosto 2019 21:20 tempo osservato: Molto Nuvoloso Molto Nuvoloso 13 81 1023 vento: Nord S/SE 13
17 Agosto 2019 20:50 tempo osservato: Nuvoloso Nuvoloso 13 81 1022 vento: Nord S 11.1
17 Agosto 2019 20:20 tempo osservato: Sereno Sereno 13 81 1022 vento: Nord S 14.8
17 Agosto 2019 19:50 tempo osservato: Nuvoloso Nuvoloso 14 76 1022 vento: Nord S 18.5